createdAt,value
2018-02-05T00:00:10.360Z,6.05
2018-02-05T00:01:01.969Z,6.03
2018-02-05T00:01:54.230Z,5.92
2018-02-05T00:11:05.712Z,5.66
2018-02-05T00:11:54.273Z,5.51
2018-02-05T00:12:43.058Z,5.48
2018-02-05T00:13:32.102Z,5.62
2018-02-05T00:14:22.267Z,5.6
2018-02-05T00:15:11.822Z,5.63
2018-02-05T00:16:00.991Z,5.65
2018-02-05T00:16:53.186Z,5.65
2018-02-05T00:17:42.715Z,5.74
2018-02-05T00:18:33.802Z,5.77
2018-02-05T00:19:26.724Z,5.77
2018-02-05T00:20:17.227Z,5.73
2018-02-05T00:21:09.055Z,5.67
2018-02-05T00:23:09.640Z,5.83
2018-02-05T00:25:09.661Z,5.73
2018-02-05T00:26:02.508Z,5.77
2018-02-05T00:26:51.187Z,5.7
2018-02-05T00:27:40.644Z,5.62
2018-02-05T00:28:34.649Z,5.6
2018-02-05T00:29:22.924Z,5.7
2018-02-05T00:30:23.362Z,5.66
2018-02-05T00:36:06.558Z,5.88
2018-02-05T00:37:45.043Z,5.67
2018-02-05T00:38:40.422Z,5.6
2018-02-05T00:40:38.575Z,5.59
2018-02-05T00:41:42.283Z,5.62
2018-02-05T00:42:34.293Z,5.63
2018-02-05T00:45:06.060Z,5.62
2018-02-05T00:45:56.262Z,5.67
2018-02-05T00:46:45.036Z,5.6
2018-02-05T00:48:37.726Z,5.44
2018-02-05T00:49:27.249Z,5.51
2018-02-05T00:50:17.808Z,5.58
2018-02-05T00:51:05.955Z,5.52
2018-02-05T00:51:55.811Z,5.63
2018-02-05T00:52:49.199Z,5.58
2018-02-05T00:53:37.277Z,5.6
2018-02-05T00:54:26.918Z,5.44
2018-02-05T00:56:36.922Z,5.3
2018-02-05T01:16:56.029Z,5.01
2018-02-05T01:18:00.158Z,5.12
2018-02-05T01:20:59.086Z,5.08
2018-02-05T01:29:26.091Z,4.5
2018-02-05T01:30:33.564Z,4.47
2018-02-05T01:56:44.781Z,3.31
2018-02-05T02:54:53.224Z,2.8
2018-02-05T03:59:51.570Z,4.83
2018-02-05T04:42:35.382Z,4.56
2018-02-05T04:43:30.743Z,4.53
2018-02-05T04:44:38.189Z,4.59
2018-02-05T04:45:30.313Z,4.59
2018-02-05T04:46:31.984Z,4.54
2018-02-05T04:47:24.389Z,4.62
2018-02-05T04:48:16.645Z,4.61
2018-02-05T04:49:25.736Z,4.56
2018-02-05T05:00:24.561Z,4.93
2018-02-05T05:01:26.980Z,4.93
2018-02-05T05:02:19.681Z,4.97
2018-02-05T05:03:14.407Z,4.93
2018-02-05T05:15:09.057Z,5.12
2018-02-05T05:15:59.243Z,5.19
2018-02-05T05:16:51.288Z,5.12
2018-02-05T05:17:43.637Z,5.09
2018-02-05T05:19:34.216Z,5.02
2018-02-05T05:20:26.489Z,5.02
2018-02-05T05:21:17.152Z,5.06
2018-02-05T05:22:11.027Z,5.02
2018-02-05T05:23:06.290Z,5.05
2018-02-05T05:23:59.114Z,5.14
2018-02-05T05:24:46.227Z,5.04
2018-02-05T05:25:40.830Z,5.02
2018-02-05T05:26:33.217Z,5.15
2018-02-05T05:27:23.734Z,5.06
2018-02-05T05:28:22.704Z,5.17
2018-02-05T05:29:13.220Z,5.12
2018-02-05T05:30:08.585Z,5.12
2018-02-05T05:31:00.120Z,5.12
2018-02-05T05:31:51.801Z,5.19
2018-02-05T05:32:43.971Z,5.2
2018-02-05T05:38:18.013Z,5.09
2018-02-05T05:39:06.467Z,5.06
2018-02-05T05:39:55.591Z,5.05
2018-02-05T05:40:42.650Z,5.08
2018-02-05T05:41:31.918Z,5.06
2018-02-05T05:42:22.750Z,5.08
2018-02-05T05:44:30.192Z,5.17
2018-02-05T05:48:50.500Z,5.29
2018-02-05T05:49:39.573Z,5.23
2018-02-05T05:50:30.447Z,5.26
2018-02-05T05:53:45.887Z,5.33
2018-02-05T05:54:40.427Z,5.29
2018-02-05T06:04:29.715Z,5.48
2018-02-05T06:05:17.723Z,5.42
2018-02-05T06:06:06.546Z,5.37
2018-02-05T06:06:57.242Z,5.49
2018-02-05T06:07:46.058Z,5.45
2018-02-05T06:08:35.136Z,5.38
2018-02-05T06:09:24.168Z,5.23
2018-02-05T06:10:14.391Z,5.32
2018-02-05T06:11:03.082Z,5.35
2018-02-05T06:11:53.701Z,5.35
2018-02-05T06:12:42.545Z,5.35
2018-02-05T06:13:30.818Z,5.3
2018-02-05T06:14:19.577Z,5.4
2018-02-05T06:15:10.197Z,5.37
2018-02-05T06:15:59.015Z,5.41
2018-02-05T06:16:47.167Z,5.56
2018-02-05T06:17:35.661Z,5.6
2018-02-05T06:18:25.003Z,5.6
2018-02-05T06:19:13.204Z,5.66
2018-02-05T06:20:01.781Z,5.7
2018-02-05T06:20:50.541Z,5.75
2018-02-05T06:21:39.170Z,5.75
2018-02-05T06:22:28.185Z,5.81
2018-02-05T06:23:16.566Z,5.7
2018-02-05T06:24:04.996Z,5.67
2018-02-05T06:24:53.625Z,5.63
2018-02-05T06:25:42.131Z,5.69
2018-02-05T06:26:30.794Z,5.69
2018-02-05T06:27:19.521Z,5.59
2018-02-05T06:28:08.089Z,5.65
2018-02-05T06:28:56.829Z,5.7
2018-02-05T06:29:45.548Z,5.81
2018-02-05T06:30:34.301Z,5.9
2018-02-05T06:31:22.716Z,5.77
2018-02-05T06:32:11.322Z,5.85
2018-02-05T06:33:00.091Z,5.9
2018-02-05T06:33:49.044Z,5.92
2018-02-05T06:34:40.468Z,5.87
2018-02-05T06:35:30.918Z,5.96
2018-02-05T06:36:19.219Z,5.85
2018-02-05T06:37:07.753Z,5.9
2018-02-05T06:37:56.476Z,6.01
2018-02-05T06:38:44.964Z,6.08
2018-02-05T06:39:33.662Z,6.08
2018-02-05T06:40:22.217Z,6.1
2018-02-05T06:41:10.673Z,6.11
2018-02-05T06:41:59.303Z,6.08
2018-02-05T06:42:48.089Z,6.19
2018-02-05T06:43:42.543Z,6.19
2018-02-05T06:44:28.582Z,6.13
2018-02-05T06:45:17.882Z,6.11
2018-02-05T06:46:07.010Z,6.19
2018-02-05T06:46:55.567Z,6.11
2018-02-05T06:47:43.779Z,6.17
2018-02-05T06:48:32.904Z,6.14
2018-02-05T06:49:21.363Z,6.19
2018-02-05T06:50:09.896Z,6.2
2018-02-05T06:50:59.045Z,6.05
2018-02-05T06:51:48.168Z,5.96
2018-02-05T06:52:38.248Z,6.02
2018-02-05T06:53:27.593Z,6.02
2018-02-05T06:54:19.819Z,5.99
2018-02-05T06:55:07.375Z,6.02
2018-02-05T06:55:55.398Z,5.96
2018-02-05T06:56:42.349Z,5.87
2018-02-05T06:58:22.737Z,5.99
2018-02-05T07:00:48.670Z,6.03
2018-02-05T07:01:40.615Z,6.08
2018-02-05T07:02:28.653Z,6.06
2018-02-05T07:03:17.997Z,5.99
2018-02-05T07:04:08.788Z,6.01
2018-02-05T07:05:02.143Z,5.93
2018-02-05T07:05:51.099Z,5.9
2018-02-05T07:06:39.621Z,5.9
2018-02-05T07:07:28.455Z,5.95
2018-02-05T07:08:16.728Z,6.05
2018-02-05T07:09:05.963Z,5.92
2018-02-05T07:09:54.686Z,5.99
2018-02-05T07:10:42.991Z,6.03
2018-02-05T07:11:31.992Z,6.19
2018-02-05T07:12:20.488Z,6.14
2018-02-05T07:13:08.924Z,6.17
2018-02-05T07:13:57.535Z,6.17
2018-02-05T07:14:46.538Z,6.16
2018-02-05T07:15:35.284Z,6.13
2018-02-05T07:16:23.710Z,6.11
2018-02-05T07:17:12.888Z,6.1
2018-02-05T07:18:01.687Z,6.1
2018-02-05T07:18:50.265Z,6.21
2018-02-05T07:19:39.968Z,6.11
2018-02-05T07:20:29.601Z,6.13
2018-02-05T07:21:18.853Z,6.08
2018-02-05T07:22:07.755Z,6.13
2018-02-05T07:22:58.698Z,6.11
2018-02-05T07:23:48.184Z,6.02
2018-02-05T07:24:37.339Z,6.11
2018-02-05T07:25:26.624Z,6.14
2018-02-05T07:26:16.149Z,6.08
2018-02-05T07:27:04.877Z,6.2
2018-02-05T07:27:53.745Z,6.28
2018-02-05T07:28:42.997Z,6.35
2018-02-05T07:29:31.607Z,6.42
2018-02-05T07:30:19.550Z,6.45
2018-02-05T07:31:08.521Z,6.51
2018-02-05T07:31:57.767Z,6.48
2018-02-05T07:32:46.069Z,6.55
2018-02-05T07:33:34.418Z,6.54
2018-02-05T07:34:24.113Z,6.6
2018-02-05T07:35:12.742Z,6.68
2018-02-05T07:36:00.668Z,6.68
2018-02-05T07:36:51.905Z,6.79
2018-02-05T07:37:40.971Z,6.91
2018-02-05T07:41:24.031Z,7.08
2018-02-05T07:43:01.607Z,7.27
2018-02-05T07:43:54.538Z,7.3
2018-02-05T07:45:43.781Z,7.51
2018-02-05T07:46:33.149Z,7.5
2018-02-05T07:47:21.609Z,7.45
2018-02-05T07:48:10.194Z,7.45
2018-02-05T07:48:58.853Z,7.34
2018-02-05T07:49:47.120Z,7.29
2018-02-05T07:50:35.583Z,7.45
2018-02-05T07:51:24.587Z,7.44
2018-02-05T07:52:13.523Z,7.47
2018-02-05T07:53:01.562Z,7.5
2018-02-05T07:53:50.674Z,7.47
2018-02-05T07:54:39.125Z,7.55
2018-02-05T07:55:28.113Z,7.57
2018-02-05T07:56:16.526Z,7.62
2018-02-05T07:57:05.235Z,7.69
2018-02-05T07:59:28.079Z,7.82
2018-02-05T08:01:06.767Z,7.94
2018-02-05T08:03:34.157Z,8.17
2018-02-05T08:04:25.436Z,8.18
2018-02-05T08:05:14.396Z,8.13
2018-02-05T08:06:02.750Z,8.06
2018-02-05T08:06:51.608Z,7.96
2018-02-05T08:07:39.747Z,7.82
2018-02-05T08:08:28.619Z,7.92
2018-02-05T08:09:17.042Z,7.94
2018-02-05T08:10:05.277Z,7.94
2018-02-05T08:10:54.847Z,7.92
2018-02-05T08:11:43.531Z,7.85
2018-02-05T08:12:32.773Z,7.36
2018-02-05T08:13:23.161Z,7.15
2018-02-05T08:14:14.073Z,7.05
2018-02-05T08:20:39.466Z,7.71
2018-02-05T08:21:28.260Z,7.95
2018-02-05T08:22:18.086Z,7.99
2018-02-05T08:23:06.039Z,8.09
2018-02-05T08:24:57.193Z,8.14
2018-02-05T08:25:47.686Z,8.14
2018-02-05T08:26:36.592Z,8.07
2018-02-05T08:27:26.559Z,8.14
2018-02-05T08:28:16.668Z,8.17
2018-02-05T08:29:04.948Z,8.43
2018-02-05T08:29:56.702Z,8.49
2018-02-05T08:30:46.814Z,8.49
2018-02-05T08:32:37.594Z,8.68
2018-02-05T08:33:28.264Z,8.75
2018-02-05T08:34:18.480Z,8.75
2018-02-05T08:35:09.055Z,8.73
2018-02-05T08:36:00.703Z,8.67
2018-02-05T08:38:22.903Z,9.12
2018-02-05T08:39:11.566Z,9.19
2018-02-05T08:40:01.067Z,9.45
2018-02-05T08:40:49.448Z,9.67
2018-02-05T08:41:38.287Z,9.73
2018-02-05T08:42:26.695Z,9.75
2018-02-05T08:43:15.444Z,9.98
2018-02-05T08:44:04.068Z,10.02
2018-02-05T08:44:52.828Z,10.06
2018-02-05T08:45:41.797Z,10.02
2018-02-05T08:46:31.376Z,9.98
2018-02-05T08:47:19.328Z,10.04
2018-02-05T08:48:08.397Z,10.04
2018-02-05T08:48:56.576Z,9.86
2018-02-05T08:49:45.608Z,9.83
2018-02-05T08:50:34.575Z,9.71
2018-02-05T08:51:24.298Z,9.62
2018-02-05T08:52:15.786Z,9.44
2018-02-05T08:53:05.144Z,9.48
2018-02-05T08:53:58.909Z,9.4
2018-02-05T08:56:07.619Z,8.94
2018-02-05T08:58:27.667Z,8.79
2018-02-05T08:59:16.944Z,8.64
2018-02-05T09:00:07.479Z,8.79
2018-02-05T09:00:56.367Z,9.12
2018-02-05T09:02:35.448Z,9.34
2018-02-05T09:03:24.877Z,9.58
2018-02-05T09:04:13.000Z,9.81
2018-02-05T09:05:01.908Z,10.04
2018-02-05T09:05:53.265Z,10.14
2018-02-05T09:06:42.360Z,10.46
2018-02-05T09:07:31.221Z,10.57
2018-02-05T09:08:20.336Z,10.52
2018-02-05T09:09:11.244Z,10.22
2018-02-05T09:10:01.135Z,10.02
2018-02-05T09:10:56.348Z,9.71
2018-02-05T09:11:39.192Z,9.34
2018-02-05T09:12:19.700Z,9.22
2018-02-05T09:13:01.163Z,9.06
2018-02-05T09:13:42.787Z,9.1
2018-02-05T09:14:23.926Z,9.04
2018-02-05T09:15:04.542Z,9.17
2018-02-05T09:15:44.985Z,9.24
2018-02-05T09:16:26.064Z,9.16
2018-02-05T09:17:06.579Z,9.24
2018-02-05T09:17:47.224Z,9.32
2018-02-05T09:18:29.219Z,9.58
2018-02-05T09:19:09.636Z,9.75
2018-02-05T09:19:50.577Z,9.93
2018-02-05T09:20:32.672Z,9.99
2018-02-05T09:21:12.395Z,10.14
2018-02-05T09:21:53.354Z,10.09
2018-02-05T09:22:34.608Z,10.04
2018-02-05T09:23:16.300Z,10.02
2018-02-05T09:23:57.415Z,10.11
2018-02-05T09:24:37.954Z,10.13
2018-02-05T09:25:18.560Z,10.1
2018-02-05T09:25:59.114Z,10.04
2018-02-05T09:26:39.717Z,10.07
2018-02-05T09:27:20.274Z,10.17
2018-02-05T09:28:01.151Z,10.04
2018-02-05T09:28:43.775Z,9.88
2018-02-05T09:29:23.749Z,9.56
2018-02-05T09:30:04.866Z,9.27
2018-02-05T09:30:45.474Z,9.2
2018-02-05T09:31:26.628Z,9.27
2018-02-05T09:32:06.909Z,9.2
2018-02-05T09:32:48.575Z,9.08
2018-02-05T09:33:28.921Z,8.85
2018-02-05T09:34:10.127Z,8.67
2018-02-05T09:34:51.045Z,8.47
2018-02-05T09:35:31.492Z,8.55
2018-02-05T09:36:12.155Z,8.31
2018-02-05T09:36:54.733Z,8.2
2018-02-05T09:37:35.299Z,8.28
2018-02-05T09:38:16.620Z,8.47
2018-02-05T09:38:57.079Z,8.68
2018-02-05T09:39:37.836Z,8.85
2018-02-05T09:40:19.005Z,9.13
2018-02-05T09:40:58.876Z,9.48
2018-02-05T09:41:39.458Z,9.6
2018-02-05T09:42:20.035Z,9.95
2018-02-05T09:43:00.530Z,9.73
2018-02-05T09:43:42.550Z,9.35
2018-02-05T09:44:23.312Z,9.08
2018-02-05T09:45:03.846Z,8.83
2018-02-05T09:45:44.280Z,8.93
2018-02-05T09:46:24.732Z,9.16
2018-02-05T09:47:05.142Z,9.26
2018-02-05T09:47:46.234Z,9.19
2018-02-05T09:48:26.614Z,9.19
2018-02-05T09:49:08.006Z,9.26
2018-02-05T09:49:48.808Z,9.32
2018-02-05T09:50:30.608Z,9.68
2018-02-05T09:51:12.104Z,9.86
2018-02-05T09:51:52.302Z,9.77
2018-02-05T09:52:32.832Z,9.74
2018-02-05T09:53:13.736Z,9.58
2018-02-05T09:53:54.335Z,9.6
2018-02-05T09:54:34.954Z,9.74
2018-02-05T09:55:15.955Z,9.95
2018-02-05T09:55:55.920Z,10.01
2018-02-05T09:56:38.050Z,9.71
2018-02-05T09:57:19.582Z,9.52
2018-02-05T09:58:00.404Z,8.86
2018-02-05T09:58:41.969Z,8.75
2018-02-05T09:59:23.071Z,8.54
2018-02-05T10:00:03.437Z,8.22
2018-02-05T10:00:44.731Z,7.85
2018-02-05T10:01:25.529Z,7.54
2018-02-05T10:02:07.117Z,7.33
2018-02-05T10:02:47.553Z,7.45
2018-02-05T10:03:28.009Z,7.63
2018-02-05T10:04:08.794Z,7.91
2018-02-05T10:04:48.935Z,8.36
2018-02-05T10:43:27.297Z,10.11
2018-02-05T10:44:12.375Z,10.32
2018-02-05T10:45:02.221Z,10.47
2018-02-05T10:45:55.217Z,10.75
2018-02-05T10:46:34.871Z,10.84
2018-02-05T10:47:15.216Z,10.73
2018-02-05T10:47:56.331Z,10.68
2018-02-05T10:48:37.370Z,10.6
2018-02-05T10:49:18.061Z,10.81
2018-02-05T10:49:59.147Z,11.02
2018-02-05T10:50:40.573Z,11.21
2018-02-05T10:51:21.569Z,11.48
2018-02-05T10:52:01.522Z,11.6
2018-02-05T10:52:42.077Z,11.75
2018-02-05T10:53:22.762Z,11.62
2018-02-05T10:54:03.384Z,11.35
2018-02-05T10:54:44.166Z,11.36
2018-02-05T10:55:24.901Z,11.12
2018-02-05T10:56:05.252Z,10.7
2018-02-05T10:56:45.731Z,10.43
2018-02-05T10:57:26.155Z,10.46
2018-02-05T10:58:06.562Z,10.47
2018-02-05T10:58:47.771Z,10.34
2018-02-05T10:59:28.712Z,10.18
2018-02-05T11:00:09.007Z,10.22
2018-02-05T11:00:49.661Z,10.35
2018-02-05T11:01:30.832Z,10.07
2018-02-05T11:02:11.538Z,9.88
2018-02-05T11:02:52.229Z,9.5
2018-02-05T11:03:33.295Z,9.19
2018-02-05T11:04:13.551Z,9.15
2018-02-05T11:04:54.215Z,8.76
2018-02-05T11:05:34.662Z,8.63
2018-02-05T11:06:14.973Z,8.79
2018-02-05T11:06:55.586Z,8.8
2018-02-05T11:07:36.011Z,8.73
2018-02-05T11:08:16.914Z,8.88
2018-02-05T11:08:57.276Z,9.16
2018-02-05T11:09:37.760Z,9.34
2018-02-05T11:10:18.379Z,9.67
2018-02-05T11:10:58.838Z,9.78
2018-02-05T11:11:39.153Z,9.92
2018-02-05T11:12:19.946Z,9.83
2018-02-05T11:13:00.431Z,9.96
2018-02-05T11:13:40.840Z,9.71
2018-02-05T11:14:21.277Z,9.7
2018-02-05T11:15:01.796Z,9.68
2018-02-05T11:17:02.476Z,9.44
2018-02-05T11:17:48.536Z,9.52
2018-02-05T11:18:40.883Z,9.26
2018-02-05T11:19:23.937Z,8.91
2018-02-05T11:20:04.288Z,8.63
2018-02-05T11:20:44.741Z,8.61
2018-02-05T11:21:25.176Z,8.55
2018-02-05T11:22:06.540Z,8.64
2018-02-05T11:22:46.911Z,8.57
2018-02-05T11:23:27.714Z,8.45
2018-02-05T11:24:08.251Z,8.54
2018-02-05T11:24:48.984Z,8.76
2018-02-05T11:25:29.773Z,9
2018-02-05T11:26:11.350Z,9.06
2018-02-05T11:26:52.363Z,9.03
2018-02-05T11:27:32.478Z,9.12
2018-02-05T11:28:12.868Z,8.75
2018-02-05T11:28:53.467Z,8.28
2018-02-05T11:29:34.786Z,8.04
2018-02-05T11:30:15.661Z,8
2018-02-05T11:30:56.983Z,8
2018-02-05T11:31:37.932Z,7.92
2018-02-05T11:32:18.594Z,7.45
2018-02-05T11:33:00.168Z,7.19
2018-02-05T11:33:40.150Z,7.16
2018-02-05T11:34:20.635Z,7.23
2018-02-05T11:35:01.129Z,7.57
2018-02-05T11:35:42.687Z,7.62
2018-02-05T11:36:23.318Z,7.85
2018-02-05T11:37:09.345Z,8.07
2018-02-05T11:37:50.804Z,8.28
2018-02-05T11:38:31.640Z,8.73
2018-02-05T11:39:13.828Z,9.03
2018-02-05T11:39:53.490Z,9.19
2018-02-05T11:40:33.796Z,9.4
2018-02-05T11:41:15.185Z,9.45
2018-02-05T11:41:56.189Z,9.3
2018-02-05T11:42:36.306Z,9.12
2018-02-05T11:43:16.936Z,8.6
2018-02-05T11:43:58.835Z,8.21
2018-02-05T11:44:40.054Z,8.02
2018-02-05T11:45:21.196Z,7.94
2018-02-05T11:46:02.489Z,7.82
2018-02-05T11:46:42.732Z,7.77
2018-02-05T11:47:22.939Z,7.81
2018-02-05T11:48:04.242Z,8.03
2018-02-05T11:48:44.604Z,7.99
2018-02-05T11:49:25.484Z,7.89
2018-02-05T11:50:05.562Z,7.81
2018-02-05T11:50:46.215Z,7.58
2018-02-05T11:51:27.364Z,7.33
2018-02-05T11:52:09.681Z,7.08
2018-02-05T11:52:49.562Z,6.93
2018-02-05T11:53:30.041Z,6.93
2018-02-05T11:54:10.458Z,6.87
2018-02-05T11:54:51.008Z,6.78
2018-02-05T11:55:32.928Z,6.89
2018-02-05T11:56:13.198Z,7.11
2018-02-05T11:56:53.725Z,7.37
2018-02-05T11:57:35.002Z,7.6
2018-02-05T11:58:17.793Z,7.71
2018-02-05T11:58:59.215Z,7.69
2018-02-05T11:59:39.740Z,7.91
2018-02-05T12:00:21.232Z,7.99
2018-02-05T12:01:02.448Z,7.95
2018-02-05T12:01:42.939Z,7.99
2018-02-05T12:02:23.412Z,8.21
2018-02-05T12:03:04.671Z,8.55
2018-02-05T12:03:44.809Z,8.7
2018-02-05T12:04:25.329Z,8.73
2018-02-05T12:05:06.016Z,8.75
2018-02-05T12:05:47.168Z,8.79
2018-02-05T12:06:27.157Z,9.22
2018-02-05T12:07:07.539Z,9.56
2018-02-05T12:08:44.839Z,10.26
2018-02-05T12:09:31.023Z,10.49
2018-02-05T12:10:07.895Z,10.93
2018-02-05T12:10:48.232Z,11.39
2018-02-05T12:11:28.745Z,11.59
2018-02-05T12:12:09.166Z,11.77
2018-02-05T12:12:49.584Z,11.87
2018-02-05T12:13:30.664Z,11.93
2018-02-05T12:14:11.123Z,11.94
2018-02-05T12:14:51.554Z,11.94
2018-02-05T12:15:31.933Z,12.16
2018-02-05T12:16:12.445Z,12.05
2018-02-05T12:16:53.321Z,11.96
2018-02-05T12:17:33.680Z,12.01
2018-02-05T12:18:14.077Z,12.11
2018-02-05T12:18:55.115Z,12.46
2018-02-05T12:19:35.399Z,12.36
2018-02-05T12:20:15.989Z,12.26
2018-02-05T12:20:56.211Z,12.01
2018-02-05T12:21:36.786Z,11.59
2018-02-05T12:22:17.695Z,11.54
2018-02-05T12:22:57.736Z,11.28
2018-02-05T12:23:38.104Z,11.12
2018-02-05T12:24:18.540Z,10.93
2018-02-05T12:26:14.100Z,10.24
2018-02-05T12:26:54.629Z,10.28
2018-02-05T12:27:35.162Z,10.25
2018-02-05T12:28:15.799Z,10.14
2018-02-05T12:28:56.821Z,9.75
2018-02-05T12:29:37.195Z,9.5
2018-02-05T12:30:18.679Z,9.55
2018-02-05T12:30:59.191Z,9.48
2018-02-05T12:31:39.547Z,9.63
2018-02-05T12:32:19.945Z,9.93
2018-02-05T12:33:00.752Z,9.99
2018-02-05T12:33:41.158Z,9.95
2018-02-05T12:34:21.592Z,9.92
2018-02-05T12:35:01.926Z,10.17
2018-02-05T12:35:42.537Z,10.31
2018-02-05T12:36:22.956Z,10.39
2018-02-05T12:37:03.345Z,10.58
2018-02-05T12:37:43.960Z,10.73
2018-02-05T12:38:24.289Z,11.02
2018-02-05T12:39:04.727Z,11.31
2018-02-05T12:39:45.286Z,11.66
2018-02-05T12:40:25.676Z,11.54
2018-02-05T12:41:06.105Z,11.79
2018-02-05T12:41:46.512Z,11.94
2018-02-05T12:42:26.892Z,11.94
2018-02-05T12:43:07.286Z,11.97
2018-02-05T12:43:47.817Z,11.82
2018-02-05T12:44:28.951Z,11.88
2018-02-05T12:45:10.621Z,11.94
2018-02-05T12:45:51.076Z,11.78
2018-02-05T12:46:31.687Z,11.74
2018-02-05T12:47:12.212Z,11.53
2018-02-05T12:47:52.711Z,11.35
2018-02-05T12:48:33.659Z,11.19
2018-02-05T12:49:14.408Z,11.17
2018-02-05T12:52:26.543Z,11.19
2018-02-05T12:53:09.894Z,11.09
2018-02-05T12:53:50.422Z,11.01
2018-02-05T12:54:30.830Z,10.91
2018-02-05T12:55:11.349Z,10.75
2018-02-05T12:55:51.930Z,10.49
2018-02-05T12:56:32.328Z,10.25
2018-02-05T12:57:12.869Z,9.93
2018-02-05T12:57:53.317Z,9.89
2018-02-05T12:58:34.795Z,9.89
2018-02-05T13:00:29.861Z,9.5
2018-02-05T13:01:10.922Z,9.49
2018-02-05T13:01:51.318Z,9.27
2018-02-05T13:02:31.728Z,9.17
2018-02-05T13:04:08.953Z,9.08
2018-02-05T13:04:54.458Z,9.22
2018-02-05T13:05:34.714Z,9.41
2018-02-05T13:06:15.218Z,9.42
2018-02-05T13:06:55.910Z,9.34
2018-02-05T13:07:36.458Z,9.31
2018-02-05T13:08:17.054Z,9.31
2018-02-05T13:08:57.436Z,9.48
2018-02-05T13:09:38.015Z,9.78
2018-02-05T13:10:18.781Z,10.02
2018-02-05T13:10:59.749Z,10.42
2018-02-05T13:11:41.252Z,10.73
2018-02-05T13:12:21.715Z,11.01
2018-02-05T13:13:02.472Z,11.23
2018-02-05T13:15:02.037Z,11.17
2018-02-05T13:15:43.890Z,11.09
2018-02-05T13:16:30.933Z,10.99
2018-02-05T13:17:11.600Z,10.75
2018-02-05T13:17:51.995Z,10.86
2018-02-05T13:18:32.453Z,10.76
2018-02-05T13:19:12.851Z,10.84
2018-02-05T13:19:53.500Z,10.84
2018-02-05T13:20:34.089Z,10.73
2018-02-05T13:21:14.774Z,10.49
2018-02-05T13:21:55.413Z,10.2
2018-02-05T13:22:35.880Z,9.83
2018-02-05T13:23:16.275Z,9.75
2018-02-05T13:23:57.503Z,9.88
2018-02-05T13:24:38.759Z,9.98
2018-02-05T13:26:36.847Z,10.36
2018-02-05T13:27:17.466Z,10.26
2018-02-05T13:27:58.768Z,10.22
2018-02-05T13:28:39.751Z,10.16
2018-02-05T13:29:20.023Z,10.28
2018-02-05T13:30:02.354Z,10.32
2018-02-05T13:30:44.782Z,10.38
2018-02-05T13:31:25.362Z,10.52
2018-02-05T13:32:06.247Z,10.8
2018-02-05T13:32:46.404Z,10.84
2018-02-05T13:33:27.031Z,11.16
2018-02-05T13:34:09.365Z,11.35
2018-02-05T13:34:50.586Z,11.35
2018-02-05T13:35:32.860Z,11.6
2018-02-05T13:36:13.256Z,11.48
2018-02-05T13:36:54.234Z,11.44
2018-02-05T13:37:34.937Z,11.38
2018-02-05T13:38:16.422Z,11.06
2018-02-05T13:38:56.744Z,10.57
2018-02-05T13:39:38.424Z,10.31
2018-02-05T13:40:19.264Z,9.99
2018-02-05T13:41:00.256Z,9.71
2018-02-05T13:41:40.520Z,9.37
2018-02-05T13:42:21.891Z,9.34
2018-02-05T13:43:02.397Z,9.22
2018-02-05T13:43:42.980Z,9.32
2018-02-05T13:44:25.753Z,9.5
2018-02-05T13:45:05.957Z,9.68
2018-02-05T13:45:46.501Z,9.93
2018-02-05T13:46:27.360Z,10.07
2018-02-05T13:47:08.995Z,10.28
2018-02-05T13:47:49.082Z,10.51
2018-02-05T13:48:29.575Z,10.91
2018-02-05T13:49:11.257Z,11.06
2018-02-05T13:49:51.545Z,11.21
2018-02-05T13:50:34.005Z,11.23
2018-02-05T13:51:13.929Z,11.23
2018-02-05T13:51:54.606Z,11.3
2018-02-05T13:57:07.686Z,11.41
2018-02-05T13:59:09.257Z,10.88
2018-02-05T13:59:51.970Z,10.73
2018-02-05T14:00:32.640Z,10.68
2018-02-05T14:01:13.714Z,10.43
2018-02-05T14:01:54.138Z,10.42
2018-02-05T14:02:35.167Z,10.2
2018-02-05T14:03:15.691Z,10.11
2018-02-05T14:03:56.351Z,10.14
2018-02-05T14:04:37.871Z,10.04
2018-02-05T14:05:18.395Z,9.91
2018-02-05T14:05:59.779Z,9.59
2018-02-05T14:06:40.857Z,9.3
2018-02-05T14:07:23.764Z,8.98
2018-02-05T14:08:03.777Z,9
2018-02-05T14:10:25.475Z,8.91
2018-02-05T14:12:01.696Z,8.82
2018-02-05T14:14:15.117Z,8.58
2018-02-05T14:14:57.464Z,8.37
2018-02-05T14:15:38.961Z,8.18
2018-02-05T14:16:19.994Z,8.32
2018-02-05T14:17:00.433Z,8.2
2018-02-05T14:17:40.852Z,8.06
2018-02-05T14:18:21.737Z,8.02
2018-02-05T14:19:02.241Z,8.03
2018-02-05T14:19:42.753Z,8.22
2018-02-05T14:20:25.954Z,8.14
2018-02-05T14:21:08.124Z,7.99
2018-02-05T14:23:21.080Z,8.06
2018-02-05T14:24:03.399Z,8.07
2018-02-05T14:24:44.557Z,8.37
2018-02-05T14:25:25.432Z,8.52
2018-02-05T14:26:06.399Z,8.71
2018-02-05T14:26:46.344Z,8.79
2018-02-05T14:27:27.137Z,8.89
2018-02-05T14:28:07.750Z,8.94
2018-02-05T14:28:48.425Z,8.93
2018-02-05T14:29:29.891Z,8.94
2018-02-05T14:30:09.943Z,9.1
2018-02-05T14:30:51.208Z,9.08
2018-02-05T14:31:32.197Z,9.17
2018-02-05T14:32:13.419Z,8.94
2018-02-05T14:32:53.699Z,8.64
2018-02-05T14:38:13.918Z,8.73
2018-02-05T14:38:55.608Z,8.98
2018-02-05T14:39:36.050Z,9.17
2018-02-05T14:40:16.413Z,9.32
2018-02-05T14:42:14.026Z,8.91
2018-02-05T14:42:56.497Z,8.71
2018-02-05T14:43:37.373Z,8.64
2018-02-05T14:44:17.916Z,8.76
2018-02-05T14:44:58.472Z,8.97
2018-02-05T14:45:39.151Z,9.24
2018-02-05T14:46:19.998Z,9.38
2018-02-05T14:47:01.189Z,9.59
2018-02-05T14:47:41.422Z,9.8
2018-02-05T14:48:22.269Z,9.78
2018-02-05T14:49:02.934Z,9.95
2018-02-05T14:49:43.635Z,9.96
2018-02-05T14:50:24.916Z,9.73
2018-02-05T14:51:05.503Z,9.31
2018-02-05T14:51:46.040Z,9.1
2018-02-05T14:52:27.174Z,9
2018-02-05T14:53:08.301Z,8.58
2018-02-05T14:53:48.798Z,8.65
2018-02-05T14:54:30.066Z,8.58
2018-02-05T14:55:10.512Z,8.61
2018-02-05T14:55:50.967Z,8.63
2018-02-05T14:56:31.812Z,8.8
2018-02-05T14:57:12.158Z,8.68
2018-02-05T14:57:52.582Z,8.67
2018-02-05T15:00:10.025Z,8.24
2018-02-05T15:01:12.246Z,7.92
2018-02-05T15:02:06.235Z,7.69
2018-02-05T15:03:00.905Z,7.58
2018-02-05T15:03:56.070Z,7.48
2018-02-05T15:04:37.013Z,7.36
2018-02-05T15:05:19.040Z,7.23
2018-02-05T15:05:59.431Z,7.34
2018-02-05T15:08:29.168Z,7.42
2018-02-05T15:09:14.712Z,7.67
2018-02-05T15:09:56.302Z,7.7
2018-02-05T15:10:37.895Z,7.82
2018-02-05T15:11:19.346Z,7.62
2018-02-05T15:11:59.422Z,7.58
2018-02-05T15:12:40.166Z,7.55
2018-02-05T15:13:20.565Z,7.3
2018-02-05T15:14:01.149Z,7.36
2018-02-05T15:14:41.960Z,7.21
2018-02-05T15:15:22.826Z,7.14
2018-02-05T15:16:03.013Z,7.08
2018-02-05T15:16:43.389Z,7.16
2018-02-05T15:17:23.906Z,7.24
2018-02-05T15:18:05.076Z,7.6
2018-02-05T15:18:45.569Z,7.84
2018-02-05T15:19:25.989Z,8.18
2018-02-05T15:20:06.364Z,8.39
2018-02-05T15:20:46.779Z,8.55
2018-02-05T15:21:27.152Z,8.73
2018-02-05T15:23:07.089Z,8.61
2018-02-05T15:23:50.556Z,8.36
2018-02-05T15:24:31.069Z,8.32
2018-02-05T15:25:11.512Z,8.21
2018-02-05T15:25:51.846Z,8.25
2018-02-05T15:26:32.478Z,8.22
2018-02-05T15:27:13.807Z,7.99
2018-02-05T15:27:54.246Z,7.94
2018-02-05T15:28:34.549Z,7.92
2018-02-05T15:29:15.492Z,8.1
2018-02-05T15:29:55.929Z,8.29
2018-02-05T15:30:37.123Z,8.22
2018-02-05T15:31:17.681Z,8.24
2018-02-05T15:31:58.214Z,8.17
2018-02-05T15:32:38.428Z,8.24
2018-02-05T15:33:19.540Z,8.14
2018-02-05T15:34:00.438Z,8.21
2018-02-05T15:34:40.835Z,8.31
2018-02-05T15:35:21.229Z,8.57
2018-02-05T15:36:01.661Z,8.76
2018-02-05T15:36:42.438Z,8.6
2018-02-05T15:37:23.021Z,8.46
2018-02-05T15:39:21.492Z,8.52
2018-02-05T15:40:01.739Z,8.39
2018-02-05T15:40:42.918Z,8.24
2018-02-05T15:41:23.903Z,7.95
2018-02-05T15:42:04.413Z,7.6
2018-02-05T15:42:44.800Z,7.55
2018-02-05T15:43:25.528Z,7.47
2018-02-05T15:44:05.988Z,7.6
2018-02-05T15:44:46.347Z,7.73
2018-02-05T15:45:26.777Z,7.95
2018-02-05T15:46:08.114Z,7.92
2018-02-05T15:46:48.520Z,7.86
2018-02-05T15:47:29.211Z,7.58
2018-02-05T15:48:09.567Z,7.55
2018-02-05T15:48:50.322Z,7.57
2018-02-05T15:49:30.718Z,7.77
2018-02-05T15:50:11.089Z,7.95
2018-02-05T15:50:51.466Z,8.21
2018-02-05T15:51:31.854Z,8.42
2018-02-05T15:52:12.249Z,8.49
2018-02-05T15:52:52.662Z,8.54
2018-02-05T15:53:33.196Z,8.31
2018-02-05T15:54:13.613Z,8.31
2018-02-05T15:55:51.967Z,8.57
2018-02-05T15:56:34.826Z,8.52
2018-02-05T15:57:15.344Z,8.29
2018-02-05T15:57:55.769Z,8.04
2018-02-05T15:58:36.548Z,7.92
2018-02-05T15:59:16.699Z,7.79
2018-02-05T15:59:57.116Z,7.81
2018-02-05T16:00:37.479Z,7.74
2018-02-05T16:01:17.876Z,7.81
2018-02-05T16:01:58.265Z,7.86
2018-02-05T16:03:42.039Z,7.95
2018-02-05T16:04:35.037Z,7.92
2018-02-05T16:43:17.137Z,5.96
2018-02-05T16:44:13.993Z,6.05
2018-02-05T16:45:02.307Z,5.95
2018-02-05T16:46:43.452Z,5.73
2018-02-05T16:47:23.673Z,5.67
2018-02-05T16:48:04.080Z,5.73
2018-02-05T16:48:44.552Z,5.66